sensor_id;sensor_type;location;lat;lon;timestamp;pressure;altitude;pressure_sealevel;temperature;humidity
7309;BME280;3695;53.330;9.876;2023-04-04T00:00:18;104289.53;;;0.32;100.00
7309;BME280;3695;53.330;9.876;2023-04-04T00:02:45;104272.72;;;0.30;100.00
7309;BME280;3695;53.330;9.876;2023-04-04T00:05:11;104318.16;;;0.28;100.00
7309;BME280;3695;53.330;9.876;2023-04-04T00:07:39;104251.59;;;0.25;100.00
7309;BME280;3695;53.330;9.876;2023-04-04T00:10:07;104283.28;;;0.33;100.00
7309;BME280;3695;53.330;9.876;2023-04-04T00:12:33;104277.00;;;0.34;100.00
7309;BME280;3695;53.330;9.876;2023-04-04T00:15:01;104331.53;;;0.49;100.00
7309;BME280;3695;53.330;9.876;2023-04-04T00:17:28;104227.22;;;0.33;100.00
7309;BME280;3695;53.330;9.876;2023-04-04T00:19:54;104258.63;;;0.48;100.00
7309;BME280;3695;53.330;9.876;2023-04-04T00:22:22;104196.28;;;0.29;100.00
7309;BME280;3695;53.330;9.876;2023-04-04T00:24:50;104255.84;;;0.29;100.00
7309;BME280;3695;53.330;9.876;2023-04-04T00:27:16;104204.25;;;0.10;100.00
7309;BME280;3695;53.330;9.876;2023-04-04T00:29:42;104242.31;;;0.14;100.00
7309;BME280;3695;53.330;9.876;2023-04-04T00:32:09;104248.13;;;0.23;100.00
7309;BME280;3695;53.330;9.876;2023-04-04T00:34:36;104203.84;;;0.19;100.00
7309;BME280;3695;53.330;9.876;2023-04-04T00:37:02;104255.78;;;0.31;100.00
7309;BME280;3695;53.330;9.876;2023-04-04T00:39:31;104172.03;;;0.15;100.00
7309;BME280;3695;53.330;9.876;2023-04-04T00:41:59;104208.72;;;0.10;100.00
7309;BME280;3695;53.330;9.876;2023-04-04T00:44:26;104199.09;;;0.06;100.00
7309;BME280;3695;53.330;9.876;2023-04-04T00:46:52;104237.25;;;0.08;100.00
7309;BME280;3695;53.330;9.876;2023-04-04T00:49:19;104168.66;;;-0.11;100.00
7309;BME280;3695;53.330;9.876;2023-04-04T00:51:45;104239.47;;;-0.04;100.00
7309;BME280;3695;53.330;9.876;2023-04-04T00:54:12;104200.41;;;-0.05;100.00
7309;BME280;3695;53.330;9.876;2023-04-04T00:56:38;104191.84;;;0.09;100.00
7309;BME280;3695;53.330;9.876;2023-04-04T00:59:07;104109.81;;;0.14;100.00
7309;BME280;3695;53.330;9.876;2023-04-04T01:01:34;104104.91;;;0.24;100.00
7309;BME280;3695;53.330;9.876;2023-04-04T01:04:01;104045.38;;;0.23;100.00
7309;BME280;3695;53.330;9.876;2023-04-04T01:06:28;104011.88;;;-0.03;100.00
7309;BME280;3695;53.330;9.876;2023-04-04T01:08:56;104092.94;;;0.14;100.00
7309;BME280;3695;53.330;9.876;2023-04-04T01:11:24;104129.00;;;0.22;100.00
7309;BME280;3695;53.330;9.876;2023-04-04T01:13:51;104012.63;;;0.01;100.00
7309;BME280;3695;53.330;9.876;2023-04-04T01:16:19;103983.34;;;-0.01;100.00
7309;BME280;3695;53.330;9.876;2023-04-04T01:18:47;104057.91;;;0.03;100.00
7309;BME280;3695;53.330;9.876;2023-04-04T01:21:15;103972.66;;;-0.01;100.00
7309;BME280;3695;53.330;9.876;2023-04-04T01:23:48;104047.53;;;0.15;100.00
7309;BME280;3695;53.330;9.876;2023-04-04T01:26:20;103972.56;;;0.03;100.00
7309;BME280;3695;53.330;9.876;2023-04-04T01:28:47;103935.47;;;-0.04;100.00
7309;BME280;3695;53.330;9.876;2023-04-04T01:31:19;103902.19;;;-0.14;100.00
7309;BME280;3695;53.330;9.876;2023-04-04T01:33:58;103870.66;;;-0.23;100.00
7309;BME280;3695;53.330;9.876;2023-04-04T01:36:31;103918.34;;;-0.17;100.00
7309;BME280;3695;53.330;9.876;2023-04-04T01:39:04;103896.41;;;-0.05;100.00
7309;BME280;3695;53.330;9.876;2023-04-04T01:41:35;104001.97;;;0.20;100.00
7309;BME280;3695;53.330;9.876;2023-04-04T01:44:02;103882.69;;;0.05;100.00
7309;BME280;3695;53.330;9.876;2023-04-04T01:46:28;103939.41;;;0.08;100.00
7309;BME280;3695;53.330;9.876;2023-04-04T01:48:55;103746.72;;;-0.14;100.00
7309;BME280;3695;53.330;9.876;2023-04-04T01:51:22;103744.50;;;-0.23;100.00
7309;BME280;3695;53.330;9.876;2023-04-04T01:53:49;103803.97;;;-0.04;100.00
7309;BME280;3695;53.330;9.876;2023-04-04T01:56:15;103757.75;;;-0.22;100.00
7309;BME280;3695;53.330;9.876;2023-04-04T01:58:43;103880.16;;;0.02;100.00
7309;BME280;3695;53.330;9.876;2023-04-04T02:01:10;103701.84;;;-0.06;100.00
7309;BME280;3695;53.330;9.876;2023-04-04T02:03:36;103635.53;;;-0.29;100.00
7309;BME280;3695;53.330;9.876;2023-04-04T02:06:03;103721.84;;;-0.15;100.00
7309;BME280;3695;53.330;9.876;2023-04-04T02:08:32;103619.78;;;-0.34;100.00
7309;BME280;3695;53.330;9.876;2023-04-04T02:10:58;103644.63;;;-0.34;100.00
7309;BME280;3695;53.330;9.876;2023-04-04T02:13:25;103668.78;;;-0.19;100.00
7309;BME280;3695;53.330;9.876;2023-04-04T02:15:53;103761.75;;;0.06;100.00
7309;BME280;3695;53.330;9.876;2023-04-04T02:18:19;103495.34;;;-0.16;100.00
7309;BME280;3695;53.330;9.876;2023-04-04T02:20:46;103514.88;;;-0.16;100.00
7309;BME280;3695;53.330;9.876;2023-04-04T02:23:12;103645.63;;;-0.02;100.00
7309;BME280;3695;53.330;9.876;2023-04-04T02:25:39;103484.28;;;-0.09;100.00
7309;BME280;3695;53.330;9.876;2023-04-04T02:28:05;103348.84;;;-0.34;100.00
7309;BME280;3695;53.330;9.876;2023-04-04T02:30:32;103418.88;;;-0.32;100.00
7309;BME280;3695;53.330;9.876;2023-04-04T02:32:59;103337.81;;;-0.43;100.00
7309;BME280;3695;53.330;9.876;2023-04-04T02:35:26;103347.72;;;-0.45;100.00
7309;BME280;3695;53.330;9.876;2023-04-04T02:37:53;103515.38;;;-0.25;100.00
7309;BME280;3695;53.330;9.876;2023-04-04T02:40:19;103392.94;;;-0.28;100.00
7309;BME280;3695;53.330;9.876;2023-04-04T02:42:46;103407.72;;;-0.22;100.00
7309;BME280;3695;53.330;9.876;2023-04-04T02:45:12;103364.06;;;-0.20;100.00
7309;BME280;3695;53.330;9.876;2023-04-04T02:47:39;103327.78;;;-0.22;100.00
7309;BME280;3695;53.330;9.876;2023-04-04T02:50:08;103275.50;;;-0.25;100.00
7309;BME280;3695;53.330;9.876;2023-04-04T02:52:35;103189.22;;;-0.38;100.00
7309;BME280;3695;53.330;9.876;2023-04-04T02:55:02;103145.72;;;-0.54;100.00
7309;BME280;3695;53.330;9.876;2023-04-04T02:57:29;103117.75;;;-0.61;100.00
7309;BME280;3695;53.330;9.876;2023-04-04T02:59:55;103135.78;;;-0.67;100.00
7309;BME280;3695;53.330;9.876;2023-04-04T03:02:22;103241.81;;;-0.57;100.00
7309;BME280;3695;53.330;9.876;2023-04-04T03:04:49;103190.25;;;-0.56;100.00
7309;BME280;3695;53.330;9.876;2023-04-04T03:07:17;103160.53;;;-0.65;100.00
7309;BME280;3695;53.330;9.876;2023-04-04T03:09:43;103195.84;;;-0.61;100.00
7309;BME280;3695;53.330;9.876;2023-04-04T03:12:10;103276.16;;;-0.53;100.00
7309;BME280;3695;53.330;9.876;2023-04-04T03:14:36;103250.47;;;-0.54;100.00
7309;BME280;3695;53.330;9.876;2023-04-04T03:17:03;103414.34;;;-0.29;100.00
7309;BME280;3695;53.330;9.876;2023-04-04T03:19:30;103531.56;;;-0.12;100.00
7309;BME280;3695;53.330;9.876;2023-04-04T03:21:57;103287.97;;;-0.25;100.00
7309;BME280;3695;53.330;9.876;2023-04-04T03:24:25;103309.03;;;-0.21;100.00
7309;BME280;3695;53.330;9.876;2023-04-04T03:26:52;103131.47;;;-0.38;100.00
7309;BME280;3695;53.330;9.876;2023-04-04T03:29:19;103045.91;;;-0.47;100.00
7309;BME280;3695;53.330;9.876;2023-04-04T03:31:45;103084.19;;;-0.50;100.00
7309;BME280;3695;53.330;9.876;2023-04-04T03:34:12;103048.31;;;-0.58;100.00
7309;BME280;3695;53.330;9.876;2023-04-04T03:36:38;103074.00;;;-0.57;100.00
7309;BME280;3695;53.330;9.876;2023-04-04T03:39:05;103223.09;;;-0.40;100.00
7309;BME280;3695;53.330;9.876;2023-04-04T03:41:33;103244.06;;;-0.34;100.00
7309;BME280;3695;53.330;9.876;2023-04-04T03:44:02;103390.63;;;-0.18;100.00
7309;BME280;3695;53.330;9.876;2023-04-04T03:46:29;103185.25;;;-0.31;100.00
7309;BME280;3695;53.330;9.876;2023-04-04T03:48:55;103127.00;;;-0.37;100.00
7309;BME280;3695;53.330;9.876;2023-04-04T03:51:22;103028.25;;;-0.50;100.00
7309;BME280;3695;53.330;9.876;2023-04-04T03:53:49;103368.25;;;-0.16;100.00
7309;BME280;3695;53.330;9.876;2023-04-04T03:56:15;103123.28;;;-0.35;100.00
7309;BME280;3695;53.330;9.876;2023-04-04T03:58:43;103164.78;;;-0.30;100.00
7309;BME280;3695;53.330;9.876;2023-04-04T04:01:10;103170.88;;;-0.28;100.00
7309;BME280;3695;53.330;9.876;2023-04-04T04:03:36;103202.59;;;-0.24;100.00
7309;BME280;3695;53.330;9.876;2023-04-04T04:06:03;103129.97;;;-0.27;100.00
7309;BME280;3695;53.330;9.876;2023-04-04T04:08:29;103277.19;;;-0.08;100.00
7309;BME280;3695;53.330;9.876;2023-04-04T04:11:02;103191.41;;;-0.15;100.00
7309;BME280;3695;53.330;9.876;2023-04-04T04:13:29;103086.19;;;-0.23;100.00
7309;BME280;3695;53.330;9.876;2023-04-04T04:15:57;103026.91;;;-0.27;100.00
7309;BME280;3695;53.330;9.876;2023-04-04T04:18:23;103033.09;;;-0.26;100.00
7309;BME280;3695;53.330;9.876;2023-04-04T04:20:49;103204.38;;;-0.09;100.00
7309;BME280;3695;53.330;9.876;2023-04-04T04:23:16;103095.44;;;-0.15;100.00
7309;BME280;3695;53.330;9.876;2023-04-04T04:25:42;103135.91;;;-0.08;100.00
7309;BME280;3695;53.330;9.876;2023-04-04T04:28:12;103032.53;;;-0.17;100.00
7309;BME280;3695;53.330;9.876;2023-04-04T04:30:38;102992.44;;;-0.30;100.00
7309;BME280;3695;53.330;9.876;2023-04-04T04:33:06;102954.75;;;-0.38;100.00
7309;BME280;3695;53.330;9.876;2023-04-04T04:35:35;103203.78;;;-0.14;100.00
7309;BME280;3695;53.330;9.876;2023-04-04T04:38:01;103198.44;;;-0.14;100.00
7309;BME280;3695;53.330;9.876;2023-04-04T04:40:27;103362.53;;;0.08;100.00
7309;BME280;3695;53.330;9.876;2023-04-04T04:42:54;103272.03;;;0.05;100.00
7309;BME280;3695;53.330;9.876;2023-04-04T04:45:20;103137.72;;;-0.09;100.00
7309;BME280;3695;53.330;9.876;2023-04-04T04:47:47;103134.28;;;-0.11;100.00
7309;BME280;3695;53.330;9.876;2023-04-04T04:50:15;103106.19;;;-0.16;100.00
7309;BME280;3695;53.330;9.876;2023-04-04T04:52:42;102949.91;;;-0.32;100.00
7309;BME280;3695;53.330;9.876;2023-04-04T04:55:09;103097.53;;;-0.20;100.00
7309;BME280;3695;53.330;9.876;2023-04-04T04:57:35;103204.19;;;-0.06;100.00
7309;BME280;3695;53.330;9.876;2023-04-04T05:00:03;103212.94;;;-0.04;100.00
7309;BME280;3695;53.330;9.876;2023-04-04T05:02:30;103077.38;;;-0.10;100.00
7309;BME280;3695;53.330;9.876;2023-04-04T05:04:56;103008.81;;;-0.22;100.00
7309;BME280;3695;53.330;9.876;2023-04-04T05:07:24;102990.44;;;-0.26;100.00
7309;BME280;3695;53.330;9.876;2023-04-04T05:09:50;103148.38;;;-0.09;100.00
7309;BME280;3695;53.330;9.876;2023-04-04T05:12:17;103184.56;;;-0.05;100.00
7309;BME280;3695;53.330;9.876;2023-04-04T05:14:43;103092.59;;;-0.12;100.00
7309;BME280;3695;53.330;9.876;2023-04-04T05:17:10;103089.75;;;-0.09;100.00
7309;BME280;3695;53.330;9.876;2023-04-04T05:19:36;102962.19;;;-0.29;100.00
7309;BME280;3695;53.330;9.876;2023-04-04T05:22:03;103011.56;;;-0.23;100.00
7309;BME280;3695;53.330;9.876;2023-04-04T05:24:31;102977.41;;;-0.31;100.00
7309;BME280;3695;53.330;9.876;2023-04-04T05:26:57;102940.50;;;-0.37;100.00
7309;BME280;3695;53.330;9.876;2023-04-04T05:29:24;103051.16;;;-0.32;100.00
7309;BME280;3695;53.330;9.876;2023-04-04T05:31:50;103177.31;;;-0.17;100.00
7309;BME280;3695;53.330;9.876;2023-04-04T05:34:16;103131.03;;;-0.16;100.00
7309;BME280;3695;53.330;9.876;2023-04-04T05:36:43;103317.38;;;0.05;100.00
7309;BME280;3695;53.330;9.876;2023-04-04T05:39:10;103312.63;;;0.10;100.00
7309;BME280;3695;53.330;9.876;2023-04-04T05:41:38;103110.88;;;-0.06;100.00
7309;BME280;3695;53.330;9.876;2023-04-04T05:44:04;103076.41;;;-0.09;100.00
7309;BME280;3695;53.330;9.876;2023-04-04T05:46:31;103293.69;;;0.14;100.00
7309;BME280;3695;53.330;9.876;2023-04-04T05:48:57;103137.78;;;0.06;100.00
7309;BME280;3695;53.330;9.876;2023-04-04T05:51:23;103118.25;;;0.05;100.00
7309;BME280;3695;53.330;9.876;2023-04-04T05:53:50;103441.47;;;0.42;100.00
7309;BME280;3695;53.330;9.876;2023-04-04T05:56:16;103178.47;;;0.23;100.00
7309;BME280;3695;53.330;9.876;2023-04-04T05:58:44;103279.19;;;0.34;100.00
7309;BME280;3695;53.330;9.876;2023-04-04T06:01:11;103116.84;;;0.28;100.00
7309;BME280;3695;53.330;9.876;2023-04-04T06:03:37;103154.66;;;0.35;100.00
7309;BME280;3695;53.330;9.876;2023-04-04T06:06:04;103262.28;;;0.49;100.00
7309;BME280;3695;53.330;9.876;2023-04-04T06:08:30;103310.34;;;0.63;100.00
7309;BME280;3695;53.330;9.876;2023-04-04T06:10:57;103323.31;;;0.70;100.00
7309;BME280;3695;53.330;9.876;2023-04-04T06:13:24;103193.78;;;0.64;100.00
7309;BME280;3695;53.330;9.876;2023-04-04T06:15:51;103217.88;;;0.62;100.00
7309;BME280;3695;53.330;9.876;2023-04-04T06:18:18;102934.53;;;0.29;100.00
7309;BME280;3695;53.330;9.876;2023-04-04T06:20:44;103154.88;;;0.46;100.00
7309;BME280;3695;53.330;9.876;2023-04-04T06:23:11;103358.69;;;0.73;100.00
7309;BME280;3695;53.330;9.876;2023-04-04T06:25:38;103109.06;;;0.53;100.00
7309;BME280;3695;53.330;9.876;2023-04-04T06:28:04;103185.09;;;0.60;100.00
7309;BME280;3695;53.330;9.876;2023-04-04T06:30:34;103533.22;;;1.02;100.00
7309;BME280;3695;53.330;9.876;2023-04-04T06:33:03;103196.81;;;0.86;100.00
7309;BME280;3695;53.330;9.876;2023-04-04T06:35:30;103408.97;;;1.11;100.00
7309;BME280;3695;53.330;9.876;2023-04-04T06:37:56;103141.41;;;0.90;100.00
7309;BME280;3695;53.330;9.876;2023-04-04T06:40:23;103382.91;;;1.14;100.00
7309;BME280;3695;53.330;9.876;2023-04-04T06:42:50;103276.28;;;1.11;100.00
7309;BME280;3695;53.330;9.876;2023-04-04T06:45:18;103377.41;;;1.32;100.00
7309;BME280;3695;53.330;9.876;2023-04-04T06:47:44;103282.16;;;1.31;100.00
7309;BME280;3695;53.330;9.876;2023-04-04T06:50:12;103374.34;;;1.38;100.00
7309;BME280;3695;53.330;9.876;2023-04-04T06:52:39;103404.44;;;1.55;100.00
7309;BME280;3695;53.330;9.876;2023-04-04T06:55:06;103572.44;;;1.92;100.00
7309;BME280;3695;53.330;9.876;2023-04-04T06:57:33;103372.41;;;1.82;100.00
7309;BME280;3695;53.330;9.876;2023-04-04T06:59:59;103398.00;;;1.86;100.00
7309;BME280;3695;53.330;9.876;2023-04-04T07:02:26;103238.38;;;1.74;100.00
7309;BME280;3695;53.330;9.876;2023-04-04T07:04:53;103459.34;;;2.04;100.00
7309;BME280;3695;53.330;9.876;2023-04-04T07:07:20;103339.91;;;2.03;100.00
7309;BME280;3695;53.330;9.876;2023-04-04T07:09:47;103091.31;;;1.74;100.00
7309;BME280;3695;53.330;9.876;2023-04-04T07:12:14;103207.38;;;1.84;100.00
7309;BME280;3695;53.330;9.876;2023-04-04T07:14:40;103215.09;;;1.89;100.00
7309;BME280;3695;53.330;9.876;2023-04-04T07:17:07;103171.38;;;1.90;100.00
7309;BME280;3695;53.330;9.876;2023-04-04T07:19:33;103150.75;;;1.92;100.00
7309;BME280;3695;53.330;9.876;2023-04-04T07:22:00;103298.84;;;2.04;100.00
7309;BME280;3695;53.330;9.876;2023-04-04T07:24:27;103119.72;;;1.89;100.00
7309;BME280;3695;53.330;9.876;2023-04-04T07:26:54;103189.25;;;1.89;100.00
7309;BME280;3695;53.330;9.876;2023-04-04T07:29:21;103527.13;;;2.31;100.00
7309;BME280;3695;53.330;9.876;2023-04-04T07:31:48;103439.31;;;2.38;100.00
7309;BME280;3695;53.330;9.876;2023-04-04T07:34:15;103282.00;;;2.29;100.00
7309;BME280;3695;53.330;9.876;2023-04-04T07:36:41;103365.50;;;2.34;100.00
7309;BME280;3695;53.330;9.876;2023-04-04T07:39:08;103528.81;;;2.61;100.00
7309;BME280;3695;53.330;9.876;2023-04-04T07:41:35;103440.38;;;2.62;100.00
7309;BME280;3695;53.330;9.876;2023-04-04T07:44:02;103473.81;;;2.69;100.00
7309;BME280;3695;53.330;9.876;2023-04-04T07:46:28;103497.41;;;2.77;100.00
7309;BME280;3695;53.330;9.876;2023-04-04T07:48:55;103304.03;;;2.59;100.00
7309;BME280;3695;53.330;9.876;2023-04-04T07:51:21;103503.91;;;2.87;100.00
7309;BME280;3695;53.330;9.876;2023-04-04T07:53:53;103193.50;;;2.57;100.00
7309;BME280;3695;53.330;9.876;2023-04-04T07:56:20;103602.56;;;3.07;100.00
7309;BME280;3695;53.330;9.876;2023-04-04T07:58:48;103105.81;;;2.61;100.00
7309;BME280;3695;53.330;9.876;2023-04-04T08:01:14;103372.06;;;2.82;100.00
7309;BME280;3695;53.330;9.876;2023-04-04T08:03:41;103482.94;;;3.06;100.00
7309;BME280;3695;53.330;9.876;2023-04-04T08:06:07;103176.69;;;2.68;100.00
7309;BME280;3695;53.330;9.876;2023-04-04T08:08:33;103485.19;;;3.00;100.00
7309;BME280;3695;53.330;9.876;2023-04-04T08:11:00;103166.72;;;2.70;100.00
7309;BME280;3695;53.330;9.876;2023-04-04T08:13:27;103479.50;;;3.04;100.00
7309;BME280;3695;53.330;9.876;2023-04-04T08:15:55;103724.09;;;3.35;100.00
7309;BME280;3695;53.330;9.876;2023-04-04T08:18:21;103667.94;;;3.46;100.00
7309;BME280;3695;53.330;9.876;2023-04-04T08:20:48;103613.91;;;3.52;100.00
7309;BME280;3695;53.330;9.876;2023-04-04T08:23:14;103659.88;;;3.73;100.00
7309;BME280;3695;53.330;9.876;2023-04-04T08:25:41;103541.19;;;3.69;100.00
7309;BME280;3695;53.330;9.876;2023-04-04T08:28:08;103515.22;;;3.70;100.00
7309;BME280;3695;53.330;9.876;2023-04-04T08:30:34;103338.22;;;3.57;100.00
7309;BME280;3695;53.330;9.876;2023-04-04T08:33:02;103514.69;;;3.77;100.00
7309;BME280;3695;53.330;9.876;2023-04-04T08:35:29;103081.56;;;3.35;100.00
7309;BME280;3695;53.330;9.876;2023-04-04T08:37:55;103136.28;;;3.33;100.00
7309;BME280;3695;53.330;9.876;2023-04-04T08:40:22;103022.16;;;3.17;100.00
7309;BME280;3695;53.330;9.876;2023-04-04T08:42:50;103619.22;;;3.79;100.00
7309;BME280;3695;53.330;9.876;2023-04-04T08:45:17;103635.66;;;3.87;100.00
7309;BME280;3695;53.330;9.876;2023-04-04T08:47:45;103571.50;;;3.97;100.00
7309;BME280;3695;53.330;9.876;2023-04-04T08:50:15;103501.16;;;4.04;100.00
7309;BME280;3695;53.330;9.876;2023-04-04T08:52:43;103496.44;;;4.08;100.00
7309;BME280;3695;53.330;9.876;2023-04-04T08:55:10;103659.34;;;4.33;100.00
7309;BME280;3695;53.330;9.876;2023-04-04T08:57:37;103721.31;;;4.55;100.00
7309;BME280;3695;53.330;9.876;2023-04-04T09:00:07;103483.38;;;4.40;100.00
7309;BME280;3695;53.330;9.876;2023-04-04T09:02:42;103289.38;;;4.25;100.00
7309;BME280;3695;53.330;9.876;2023-04-04T09:05:10;103371.81;;;4.36;100.00
7309;BME280;3695;53.330;9.876;2023-04-04T09:07:39;102987.25;;;3.88;100.00
7309;BME280;3695;53.330;9.876;2023-04-04T09:10:08;102942.38;;;3.78;100.00
7309;BME280;3695;53.330;9.876;2023-04-04T09:12:36;103293.19;;;4.10;100.00
7309;BME280;3695;53.330;9.876;2023-04-04T09:15:04;103601.13;;;4.33;100.00
7309;BME280;3695;53.330;9.876;2023-04-04T09:17:30;103693.38;;;4.58;100.00
7309;BME280;3695;53.330;9.876;2023-04-04T09:20:00;103720.56;;;4.66;100.00
7309;BME280;3695;53.330;9.876;2023-04-04T09:22:28;103716.94;;;4.80;100.00
7309;BME280;3695;53.330;9.876;2023-04-04T09:24:55;103704.78;;;4.87;100.00
7309;BME280;3695;53.330;9.876;2023-04-04T09:27:22;103531.75;;;4.77;100.00
7309;BME280;3695;53.330;9.876;2023-04-04T09:29:48;103766.56;;;4.99;100.00
7309;BME280;3695;53.330;9.876;2023-04-04T09:32:19;103577.25;;;4.91;100.00
7309;BME280;3695;53.330;9.876;2023-04-04T09:34:47;103833.44;;;5.17;100.00
7309;BME280;3695;53.330;9.876;2023-04-04T09:37:15;103512.94;;;5.00;100.00
7309;BME280;3695;53.330;9.876;2023-04-04T09:39:42;103819.47;;;5.37;100.00
7309;BME280;3695;53.330;9.876;2023-04-04T09:42:10;103720.16;;;5.34;100.00
7309;BME280;3695;53.330;9.876;2023-04-04T09:44:37;103567.03;;;5.20;100.00
7309;BME280;3695;53.330;9.876;2023-04-04T09:47:23;103661.44;;;5.28;100.00
7309;BME280;3695;53.330;9.876;2023-04-04T09:49:50;103679.59;;;5.37;100.00
7309;BME280;3695;53.330;9.876;2023-04-04T09:52:17;103832.00;;;5.62;100.00
7309;BME280;3695;53.330;9.876;2023-04-04T09:54:54;103589.63;;;5.41;100.00
7309;BME280;3695;53.330;9.876;2023-04-04T09:57:22;103537.78;;;5.39;100.00
7309;BME280;3695;53.330;9.876;2023-04-04T09:59:50;103559.78;;;5.33;100.00
7309;BME280;3695;53.330;9.876;2023-04-04T10:02:16;103657.16;;;5.49;100.00
7309;BME280;3695;53.330;9.876;2023-04-04T10:04:43;103609.59;;;5.50;100.00
7309;BME280;3695;53.330;9.876;2023-04-04T10:07:11;103134.66;;;5.02;100.00
7309;BME280;3695;53.330;9.876;2023-04-04T10:09:38;103438.72;;;5.22;100.00
7309;BME280;3695;53.330;9.876;2023-04-04T10:12:08;103770.44;;;5.57;100.00
7309;BME280;3695;53.330;9.876;2023-04-04T10:14:37;103223.97;;;5.17;100.00
7309;BME280;3695;53.330;9.876;2023-04-04T10:17:07;103725.72;;;5.67;100.00
7309;BME280;3695;53.330;9.876;2023-04-04T10:19:35;103730.44;;;5.77;100.00
7309;BME280;3695;53.330;9.876;2023-04-04T10:22:03;103867.31;;;6.07;100.00
7309;BME280;3695;53.330;9.876;2023-04-04T10:24:30;103817.97;;;6.19;100.00
7309;BME280;3695;53.330;9.876;2023-04-04T10:26:56;103711.94;;;6.20;100.00
7309;BME280;3695;53.330;9.876;2023-04-04T10:29:23;103077.16;;;5.69;100.00
7309;BME280;3695;53.330;9.876;2023-04-04T10:31:56;103315.97;;;5.88;100.00
7309;BME280;3695;53.330;9.876;2023-04-04T10:34:29;103461.72;;;5.94;100.00
7309;BME280;3695;53.330;9.876;2023-04-04T10:37:04;103570.50;;;6.03;100.00
7309;BME280;3695;53.330;9.876;2023-04-04T10:39:36;103881.38;;;6.47;100.00
7309;BME280;3695;53.330;9.876;2023-04-04T10:42:04;103558.31;;;6.21;100.00
7309;BME280;3695;53.330;9.876;2023-04-04T10:44:32;103578.16;;;6.20;100.00
7309;BME280;3695;53.330;9.876;2023-04-04T10:47:05;103724.72;;;6.40;100.00
7309;BME280;3695;53.330;9.876;2023-04-04T10:49:34;103545.56;;;6.35;100.00
7309;BME280;3695;53.330;9.876;2023-04-04T10:52:02;103390.22;;;6.24;100.00
7309;BME280;3695;53.330;9.876;2023-04-04T10:54:29;103476.50;;;6.34;100.00
7309;BME280;3695;53.330;9.876;2023-04-04T10:56:56;103738.22;;;6.51;100.00
7309;BME280;3695;53.330;9.876;2023-04-04T10:59:24;103720.47;;;6.60;100.00
7309;BME280;3695;53.330;9.876;2023-04-04T11:01:55;103075.56;;;5.87;100.00
7309;BME280;3695;53.330;9.876;2023-04-04T11:04:31;103551.44;;;6.40;100.00
7309;BME280;3695;53.330;9.876;2023-04-04T11:07:09;103216.56;;;6.07;100.00
7309;BME280;3695;53.330;9.876;2023-04-04T11:09:45;103817.03;;;6.66;100.00
7309;BME280;3695;53.330;9.876;2023-04-04T11:12:12;103742.66;;;6.63;100.00
7309;BME280;3695;53.330;9.876;2023-04-04T11:14:54;103791.59;;;6.81;100.00
7309;BME280;3695;53.330;9.876;2023-04-04T11:17:41;102954.09;;;5.92;100.00
7309;BME280;3695;53.330;9.876;2023-04-04T11:20:09;103367.22;;;6.20;100.00
7309;BME280;3695;53.330;9.876;2023-04-04T11:22:35;103406.16;;;6.16;100.00
7309;BME280;3695;53.330;9.876;2023-04-04T11:25:36;103936.91;;;6.73;100.00
7309;BME280;3695;53.330;9.876;2023-04-04T11:28:08;103542.50;;;6.50;100.00
7309;BME280;3695;53.330;9.876;2023-04-04T11:30:40;103573.34;;;6.69;100.00
7309;BME280;3695;53.330;9.876;2023-04-04T11:33:13;103058.84;;;6.25;100.00
7309;BME280;3695;53.330;9.876;2023-04-04T11:35:51;103455.63;;;6.69;100.00
7309;BME280;3695;53.330;9.876;2023-04-04T11:38:18;103267.50;;;6.63;100.00
7309;BME280;3695;53.330;9.876;2023-04-04T11:40:51;103445.25;;;6.85;100.00
7309;BME280;3695;53.330;9.876;2023-04-04T11:43:19;103546.66;;;7.09;100.00
7309;BME280;3695;53.330;9.876;2023-04-04T11:45:46;103580.00;;;7.19;100.00
7309;BME280;3695;53.330;9.876;2023-04-04T11:48:14;103670.81;;;7.30;100.00
7309;BME280;3695;53.330;9.876;2023-04-04T11:50:41;103647.34;;;7.41;100.00
7309;BME280;3695;53.330;9.876;2023-04-04T11:53:10;103660.22;;;7.49;100.00
7309;BME280;3695;53.330;9.876;2023-04-04T11:55:38;103764.59;;;7.71;100.00
7309;BME280;3695;53.330;9.876;2023-04-04T11:58:10;103946.16;;;8.29;100.00
7309;BME280;3695;53.330;9.876;2023-04-04T12:00:38;103686.09;;;8.15;100.00
7309;BME280;3695;53.330;9.876;2023-04-04T12:03:06;103504.63;;;8.10;100.00
7309;BME280;3695;53.330;9.876;2023-04-04T12:05:35;103033.84;;;7.62;100.00
7309;BME280;3695;53.330;9.876;2023-04-04T12:08:02;102344.13;;;6.81;100.00
7309;BME280;3695;53.330;9.876;2023-04-04T12:10:33;103038.25;;;7.43;100.00
7309;BME280;3695;53.330;9.876;2023-04-04T12:13:00;102802.47;;;7.26;100.00
7309;BME280;3695;53.330;9.876;2023-04-04T12:15:27;102958.88;;;7.46;100.00
7309;BME280;3695;53.330;9.876;2023-04-04T12:17:54;103013.09;;;7.52;100.00
7309;BME280;3695;53.330;9.876;2023-04-04T12:20:21;103137.81;;;7.95;100.00
7309;BME280;3695;53.330;9.876;2023-04-04T12:22:48;103035.25;;;7.75;100.00
7309;BME280;3695;53.330;9.876;2023-04-04T12:25:16;103127.69;;;7.19;100.00
7309;BME280;3695;53.330;9.876;2023-04-04T12:27:45;103167.91;;;7.32;100.00
7309;BME280;3695;53.330;9.876;2023-04-04T12:30:13;103184.25;;;7.40;100.00
7309;BME280;3695;53.330;9.876;2023-04-04T12:32:41;103180.03;;;7.67;100.00
7309;BME280;3695;53.330;9.876;2023-04-04T12:35:09;103172.88;;;7.46;100.00
7309;BME280;3695;53.330;9.876;2023-04-04T12:37:37;103171.50;;;7.71;100.00
7309;BME280;3695;53.330;9.876;2023-04-04T12:40:05;103172.03;;;7.55;100.00
7309;BME280;3695;53.330;9.876;2023-04-04T12:42:33;103200.81;;;7.26;100.00
7309;BME280;3695;53.330;9.876;2023-04-04T12:45:02;103166.47;;;7.28;100.00
7309;BME280;3695;53.330;9.876;2023-04-04T12:47:29;103148.44;;;7.38;100.00
7309;BME280;3695;53.330;9.876;2023-04-04T12:49:56;103142.94;;;7.98;100.00
7309;BME280;3695;53.330;9.876;2023-04-04T12:52:26;103116.09;;;8.62;100.00
7309;BME280;3695;53.330;9.876;2023-04-04T12:54:53;103108.53;;;8.66;100.00
7309;BME280;3695;53.330;9.876;2023-04-04T12:57:23;103110.69;;;8.62;100.00
7309;BME280;3695;53.330;9.876;2023-04-04T12:59:53;103100.69;;;9.00;100.00
7309;BME280;3695;53.330;9.876;2023-04-04T13:02:22;103095.06;;;9.11;100.00
7309;BME280;3695;53.330;9.876;2023-04-04T13:04:51;103092.66;;;9.08;100.00
7309;BME280;3695;53.330;9.876;2023-04-04T13:07:20;103100.72;;;9.18;100.00
7309;BME280;3695;53.330;9.876;2023-04-04T13:09:50;103091.28;;;9.04;100.00